createdAt,value
2023-01-13T00:01:48.107Z,13.70
2023-01-13T00:04:15.040Z,16.70
2023-01-13T00:06:42.253Z,15.30
2023-01-13T00:09:09.162Z,14.80
2023-01-13T00:11:36.081Z,13.70
2023-01-13T00:14:02.992Z,15.00
2023-01-13T00:16:29.917Z,14.80
2023-01-13T00:18:56.853Z,14.10
2023-01-13T00:21:24.354Z,12.40
2023-01-13T00:23:53.369Z,12.20
2023-01-13T00:26:23.535Z,11.40
2023-01-13T00:28:50.950Z,11.30
2023-01-13T00:31:20.369Z,12.70
2023-01-13T00:33:51.177Z,11.60
2023-01-13T00:38:47.938Z,10.20
2023-01-13T00:41:17.671Z,11.00
2023-01-13T00:43:45.292Z,13.10
2023-01-13T00:46:14.419Z,13.10
2023-01-13T00:48:41.505Z,12.40
2023-01-13T00:51:12.299Z,13.00
2023-01-13T00:53:42.675Z,13.40
2023-01-13T00:56:34.125Z,11.70
2023-01-13T00:59:05.837Z,11.70
2023-01-13T01:01:33.195Z,13.30
2023-01-13T01:04:00.319Z,12.80
2023-01-13T01:06:27.776Z,12.60
2023-01-13T01:08:55.598Z,11.70
2023-01-13T01:11:25.390Z,12.50
2023-01-13T01:13:54.682Z,13.90
2023-01-13T01:16:24.110Z,12.90
2023-01-13T01:18:52.918Z,14.20
2023-01-13T01:21:21.995Z,14.30
2023-01-13T01:23:49.064Z,13.90
2023-01-13T01:26:18.873Z,14.50
2023-01-13T01:28:46.324Z,12.80
2023-01-13T01:31:21.411Z,13.60
2023-01-13T01:33:49.416Z,13.70
2023-01-13T01:36:18.311Z,13.40
2023-01-13T01:38:46.265Z,14.70
2023-01-13T01:41:19.929Z,15.90
2023-01-13T01:44:01.038Z,13.10
2023-01-13T01:46:33.477Z,12.90
2023-01-13T01:49:06.830Z,14.90
2023-01-13T01:51:38.403Z,16.60
2023-01-13T01:54:10.764Z,15.60
2023-01-13T01:56:42.111Z,17.50
2023-01-13T01:59:09.775Z,16.50
2023-01-13T02:01:38.029Z,15.40
2023-01-13T02:04:11.259Z,16.30
2023-01-13T02:06:38.819Z,16.30
2023-01-13T02:09:07.233Z,14.80
2023-01-13T02:11:54.262Z,14.20
2023-01-13T02:14:25.286Z,13.70
2023-01-13T02:17:18.836Z,14.50
2023-01-13T02:20:04.172Z,12.30
2023-01-13T02:22:42.984Z,13.70
2023-01-13T02:26:01.170Z,13.20
2023-01-13T02:29:06.490Z,11.70
2023-01-13T02:31:44.310Z,12.10
2023-01-13T02:34:31.342Z,12.90
2023-01-13T02:37:06.703Z,12.20
2023-01-13T02:39:53.537Z,12.40
2023-01-13T02:42:46.979Z,13.10
2023-01-13T02:45:27.648Z,12.70
2023-01-13T02:47:57.516Z,13.50
2023-01-13T02:50:34.762Z,14.20
2023-01-13T02:53:50.308Z,13.70
2023-01-13T02:56:19.026Z,13.00
2023-01-13T02:58:47.980Z,12.50
2023-01-13T03:01:15.049Z,13.40
2023-01-13T03:03:43.407Z,14.40
2023-01-13T03:06:16.011Z,15.30
2023-01-13T03:08:53.005Z,13.20
2023-01-13T03:11:21.374Z,13.90
2023-01-13T03:14:05.910Z,12.80
2023-01-13T03:16:54.319Z,13.00
2023-01-13T03:19:50.383Z,14.30
2023-01-13T03:22:38.155Z,12.30
2023-01-13T03:25:18.001Z,12.10
2023-01-13T03:28:03.518Z,13.10
2023-01-13T03:30:41.396Z,12.70
2023-01-13T03:33:22.130Z,13.70
2023-01-13T03:35:56.708Z,13.60
2023-01-13T03:38:37.853Z,14.40
2023-01-13T03:41:21.494Z,13.30
2023-01-13T03:44:15.877Z,11.90
2023-01-13T03:47:21.150Z,13.70
2023-01-13T03:50:17.118Z,12.70
2023-01-13T03:52:51.222Z,11.40
2023-01-13T03:55:23.148Z,13.30
2023-01-13T03:58:13.797Z,11.90
2023-01-13T04:00:47.612Z,12.30
2023-01-13T04:03:27.015Z,12.40
2023-01-13T04:06:04.369Z,12.40
2023-01-13T04:08:34.486Z,13.20
2023-01-13T04:11:10.113Z,12.60
2023-01-13T04:13:40.247Z,13.10
2023-01-13T04:16:09.830Z,13.60
2023-01-13T04:18:38.186Z,12.90
2023-01-13T04:21:06.765Z,13.00
2023-01-13T04:23:33.944Z,13.50
2023-01-13T04:26:00.859Z,12.70
2023-01-13T04:28:27.813Z,12.90
2023-01-13T04:30:54.752Z,14.20
2023-01-13T04:33:21.707Z,13.50
2023-01-13T04:35:48.975Z,13.00
2023-01-13T04:38:17.971Z,14.10
2023-01-13T04:40:45.163Z,14.90
2023-01-13T04:43:12.273Z,14.00
2023-01-13T04:45:39.195Z,13.60
2023-01-13T04:48:06.532Z,12.70
2023-01-13T04:50:33.428Z,14.00
2023-01-13T04:53:00.742Z,13.10
2023-01-13T04:55:27.870Z,11.70
2023-01-13T04:57:54.914Z,12.50
2023-01-13T05:00:23.052Z,14.20
2023-01-13T05:02:51.095Z,11.00
2023-01-13T05:05:18.523Z,12.80
2023-01-13T05:07:45.875Z,12.40
2023-01-13T05:10:12.885Z,12.90
2023-01-13T05:12:58.817Z,12.80
2023-01-13T05:15:44.213Z,12.40
2023-01-13T05:18:11.926Z,12.80
2023-01-13T05:20:38.904Z,12.50
2023-01-13T05:23:24.824Z,13.20
2023-01-13T05:25:52.093Z,12.00
2023-01-13T05:28:19.084Z,12.20
2023-01-13T05:30:48.622Z,11.60
2023-01-13T05:33:17.593Z,12.60
2023-01-13T05:35:45.984Z,13.60
2023-01-13T05:38:13.903Z,13.50
2023-01-13T05:41:00.807Z,13.40
2023-01-13T05:43:28.662Z,12.30
2023-01-13T05:46:01.682Z,12.10
2023-01-13T05:48:34.213Z,12.50
2023-01-13T05:51:03.099Z,13.80
2023-01-13T05:53:31.132Z,12.40
2023-01-13T05:55:59.189Z,12.60
2023-01-13T05:58:27.271Z,13.20
2023-01-13T06:01:00.282Z,12.90
2023-01-13T06:03:27.357Z,14.00
2023-01-13T06:06:03.588Z,12.70
2023-01-13T06:08:31.421Z,12.50
2023-01-13T06:10:58.593Z,11.80
2023-01-13T06:13:26.064Z,11.00
2023-01-13T06:15:59.400Z,11.10
2023-01-13T06:18:27.240Z,11.70
2023-01-13T06:20:54.748Z,12.70
2023-01-13T06:23:22.072Z,11.20
2023-01-13T06:25:54.967Z,10.70
2023-01-13T06:28:21.928Z,11.20
2023-01-13T06:30:53.795Z,11.40
2023-01-13T06:33:28.560Z,11.10
2023-01-13T06:36:00.996Z,11.50
2023-01-13T06:38:31.052Z,15.70
2023-01-13T06:40:57.973Z,19.60
2023-01-13T06:43:25.258Z,21.40
2023-01-13T06:45:54.126Z,17.20
2023-01-13T06:48:27.797Z,17.30
2023-01-13T06:50:54.956Z,18.20
2023-01-13T06:53:21.920Z,20.00
2023-01-13T06:55:48.949Z,18.40
2023-01-13T06:58:16.015Z,18.50
2023-01-13T07:00:42.954Z,18.70
2023-01-13T07:03:14.830Z,16.40
2023-01-13T07:05:43.427Z,16.00
2023-01-13T07:08:10.559Z,14.60
2023-01-13T07:10:38.357Z,18.00
2023-01-13T07:13:24.713Z,15.50
2023-01-13T07:16:03.524Z,15.80
2023-01-13T07:18:33.795Z,17.30
2023-01-13T07:21:03.787Z,15.30
2023-01-13T07:23:32.943Z,15.80
2023-01-13T07:26:00.217Z,15.10
2023-01-13T07:28:29.324Z,15.40
2023-01-13T07:30:57.313Z,14.80
2023-01-13T07:33:25.111Z,14.80
2023-01-13T07:35:57.730Z,15.70
2023-01-13T07:38:25.844Z,13.60
2023-01-13T07:40:53.366Z,13.90
2023-01-13T07:43:32.302Z,13.00
2023-01-13T07:46:02.433Z,14.60
2023-01-13T07:48:29.913Z,13.30
2023-01-13T07:51:00.605Z,14.30
2023-01-13T07:53:27.634Z,16.70
2023-01-13T07:55:56.398Z,14.10
2023-01-13T07:58:24.582Z,14.80
2023-01-13T08:00:52.403Z,16.30
2023-01-13T08:03:19.425Z,16.60
2023-01-13T08:05:46.606Z,14.90
2023-01-13T08:08:13.858Z,14.90
2023-01-13T08:10:41.239Z,14.50
2023-01-13T08:13:22.162Z,14.50
2023-01-13T08:18:21.664Z,12.10
2023-01-13T08:20:51.704Z,13.30
2023-01-13T08:23:19.849Z,11.80
2023-01-13T08:25:47.349Z,15.00
2023-01-13T08:28:15.974Z,13.50
2023-01-13T08:30:42.992Z,12.40
2023-01-13T08:33:12.032Z,11.60
2023-01-13T08:35:40.755Z,11.90
2023-01-13T08:38:08.462Z,11.80
2023-01-13T08:40:36.018Z,12.10
2023-01-13T08:43:03.048Z,12.10
2023-01-13T08:45:30.072Z,14.60
2023-01-13T08:47:57.345Z,11.60
2023-01-13T08:50:24.460Z,14.30
2023-01-13T08:52:51.504Z,12.50
2023-01-13T08:55:18.865Z,13.20
2023-01-13T08:57:45.930Z,14.40
2023-01-13T09:00:13.359Z,14.50
2023-01-13T09:02:40.399Z,18.30
2023-01-13T09:05:08.829Z,14.80
2023-01-13T09:07:37.464Z,14.10
2023-01-13T09:10:07.153Z,13.60
2023-01-13T09:12:52.839Z,15.80
2023-01-13T09:15:21.051Z,16.50
2023-01-13T09:17:48.148Z,15.30
2023-01-13T09:20:15.509Z,16.50
2023-01-13T09:22:42.537Z,15.10
2023-01-13T09:25:09.800Z,15.30
2023-01-13T09:27:36.731Z,16.30
2023-01-13T09:30:05.208Z,18.00
2023-01-13T09:32:32.449Z,13.50
2023-01-13T09:34:59.499Z,16.40
2023-01-13T09:37:28.124Z,13.30
2023-01-13T09:39:55.641Z,13.70
2023-01-13T09:43:00.108Z,13.40
2023-01-13T09:45:47.230Z,16.00
2023-01-13T09:48:26.427Z,12.30
2023-01-13T09:51:05.900Z,16.30
2023-01-13T09:53:56.828Z,14.20
2023-01-13T09:56:24.960Z,13.80
2023-01-13T09:58:52.021Z,13.60
2023-01-13T10:01:34.952Z,14.60
2023-01-13T10:04:13.054Z,14.50
2023-01-13T10:06:44.391Z,15.80
2023-01-13T10:09:21.452Z,10.50
2023-01-13T10:12:09.023Z,16.90
2023-01-13T10:15:02.455Z,12.40
2023-01-13T10:17:38.449Z,12.40
2023-01-13T10:20:39.985Z,16.50
2023-01-13T10:23:27.856Z,12.60
2023-01-13T10:26:20.427Z,11.00
2023-01-13T10:28:54.602Z,12.40
2023-01-13T10:31:23.136Z,9.30
2023-01-13T10:34:01.222Z,6.30
2023-01-13T10:36:28.138Z,5.90
2023-01-13T10:39:08.288Z,5.20
2023-01-13T10:41:35.747Z,6.10
2023-01-13T10:44:14.637Z,6.50
2023-01-13T10:46:53.735Z,5.50
2023-01-13T10:49:38.202Z,5.40
2023-01-13T10:52:26.960Z,6.90
2023-01-13T10:54:55.106Z,5.30
2023-01-13T10:57:27.356Z,6.30
2023-01-13T10:59:55.766Z,6.60
2023-01-13T11:02:27.412Z,5.60
2023-01-13T11:04:57.583Z,5.10
2023-01-13T11:07:38.020Z,5.30
2023-01-13T11:10:28.344Z,5.50
2023-01-13T11:13:26.512Z,4.80
2023-01-13T11:16:17.541Z,4.70
2023-01-13T11:19:13.555Z,5.50
2023-01-13T11:21:43.380Z,4.80
2023-01-13T11:24:14.859Z,5.30
2023-01-13T11:27:11.136Z,5.20
2023-01-13T11:29:44.692Z,5.20
2023-01-13T11:32:19.436Z,6.00
2023-01-13T11:34:52.221Z,4.90
2023-01-13T11:37:26.974Z,5.40
2023-01-13T11:40:05.009Z,5.10
2023-01-13T11:42:55.203Z,5.40
2023-01-13T11:45:37.059Z,4.80
2023-01-13T11:48:04.443Z,5.80
2023-01-13T11:50:40.090Z,5.30
2023-01-13T11:53:18.062Z,6.00
2023-01-13T11:55:52.877Z,4.80
2023-01-13T11:58:50.793Z,4.60
2023-01-13T12:01:52.111Z,4.50
2023-01-13T12:07:54.770Z,4.10
2023-01-13T12:10:44.062Z,5.00
2023-01-13T12:13:23.563Z,4.50
2023-01-13T12:16:09.109Z,4.90
2023-01-13T12:18:45.214Z,8.80
2023-01-13T12:21:22.556Z,4.40
2023-01-13T12:24:05.277Z,4.80
2023-01-13T12:26:38.705Z,4.70
2023-01-13T12:29:18.570Z,4.60
2023-01-13T12:31:50.068Z,4.10
2023-01-13T12:34:38.918Z,4.50
2023-01-13T12:37:26.954Z,4.40
2023-01-13T12:40:15.352Z,4.30
2023-01-13T12:43:15.625Z,4.20
2023-01-13T12:45:42.619Z,4.40
2023-01-13T12:48:50.316Z,4.30
2023-01-13T12:51:50.978Z,4.70
2023-01-13T12:54:30.189Z,4.30
2023-01-13T12:56:58.521Z,4.30
2023-01-13T12:59:25.414Z,4.60
2023-01-13T13:02:10.561Z,5.10
2023-01-13T13:04:55.460Z,5.40
2023-01-13T13:07:48.370Z,4.70
2023-01-13T13:10:28.940Z,5.70
2023-01-13T13:13:17.662Z,5.40
2023-01-13T13:15:50.576Z,5.20
2023-01-13T13:18:17.530Z,5.40
2023-01-13T13:20:56.491Z,5.40
2023-01-13T13:23:32.547Z,5.50
2023-01-13T13:26:19.544Z,5.60
2023-01-13T13:29:15.665Z,5.90
2023-01-13T13:32:06.616Z,5.60
2023-01-13T13:38:05.016Z,5.10
2023-01-13T13:40:58.631Z,5.50
2023-01-13T13:43:45.520Z,6.00
2023-01-13T13:46:43.612Z,5.70
2023-01-13T13:49:11.647Z,7.00
2023-01-13T13:52:02.298Z,7.00
2023-01-13T13:54:31.015Z,6.70
2023-01-13T13:56:58.587Z,7.50
2023-01-13T13:59:33.174Z,8.40
2023-01-13T14:02:03.074Z,7.30
2023-01-13T14:04:32.643Z,6.80
2023-01-13T14:07:04.445Z,8.80
2023-01-13T14:09:44.312Z,8.00
2023-01-13T14:12:23.668Z,6.90
2023-01-13T14:14:51.639Z,7.90
2023-01-13T14:17:26.771Z,6.30
2023-01-13T14:19:59.720Z,7.10
2023-01-13T14:22:26.879Z,6.20
2023-01-13T14:24:57.612Z,7.60
2023-01-13T14:27:27.470Z,7.50
2023-01-13T14:29:57.724Z,8.70
2023-01-13T14:32:35.971Z,9.50
2023-01-13T14:35:07.581Z,8.80
2023-01-13T14:37:39.458Z,7.10
2023-01-13T14:40:32.766Z,8.20
2023-01-13T14:43:00.751Z,8.10
2023-01-13T14:45:32.608Z,8.30
2023-01-13T14:48:08.756Z,10.10
2023-01-13T14:50:37.925Z,8.20
2023-01-13T14:53:27.176Z,8.00
2023-01-13T14:55:58.068Z,9.40
2023-01-13T14:58:30.318Z,9.40
2023-01-13T15:01:35.648Z,9.00
2023-01-13T15:04:37.648Z,9.10
2023-01-13T15:07:24.442Z,9.30
2023-01-13T15:09:58.430Z,8.80
2023-01-13T15:12:38.876Z,10.70
2023-01-13T15:15:33.900Z,9.70
2023-01-13T15:18:09.382Z,8.90
2023-01-13T15:20:38.331Z,8.40
2023-01-13T15:23:06.089Z,7.60
2023-01-13T15:25:41.654Z,8.90
2023-01-13T15:28:27.959Z,8.40
2023-01-13T15:31:00.081Z,10.60
2023-01-13T15:33:27.777Z,9.90
2023-01-13T15:35:55.624Z,11.30
2023-01-13T15:38:26.079Z,9.20
2023-01-13T15:40:53.783Z,10.10
2023-01-13T15:43:42.183Z,9.00
2023-01-13T15:46:38.293Z,9.50
2023-01-13T15:49:26.099Z,8.20
2023-01-13T15:51:55.023Z,7.70
2023-01-13T15:54:24.089Z,7.90
2023-01-13T15:56:52.952Z,9.00
2023-01-13T15:59:26.519Z,8.70
2023-01-13T16:01:54.427Z,8.60
2023-01-13T16:04:22.052Z,8.70
2023-01-13T16:06:55.850Z,8.00
2023-01-13T16:09:27.410Z,9.50
2023-01-13T16:11:57.777Z,9.50
2023-01-13T16:14:28.904Z,9.10
2023-01-13T16:16:58.776Z,10.30
2023-01-13T16:19:26.484Z,8.30
2023-01-13T16:21:59.168Z,10.10
2023-01-13T16:24:26.780Z,10.70
2023-01-13T16:26:57.518Z,9.20
2023-01-13T16:29:25.250Z,9.60
2023-01-13T16:31:53.126Z,9.70
2023-01-13T16:34:20.805Z,8.10
2023-01-13T16:36:57.751Z,11.40
2023-01-13T16:39:25.519Z,10.60
2023-01-13T16:41:53.337Z,9.90
2023-01-13T16:44:23.039Z,8.10
2023-01-13T16:46:50.728Z,11.40
2023-01-13T16:49:18.475Z,8.80
2023-01-13T16:51:48.308Z,8.10
2023-01-13T16:54:15.912Z,9.70
2023-01-13T16:56:43.936Z,8.60
2023-01-13T16:59:13.960Z,9.80
2023-01-13T17:01:44.466Z,9.70
2023-01-13T17:04:17.835Z,9.10
2023-01-13T17:06:57.840Z,10.60
2023-01-13T17:09:30.978Z,9.00
2023-01-13T17:11:58.752Z,8.90
2023-01-13T17:14:26.434Z,8.00
2023-01-13T17:16:57.489Z,7.80
2023-01-13T17:19:27.967Z,7.20
2023-01-13T17:21:55.713Z,7.30
2023-01-13T17:24:25.199Z,7.10
2023-01-13T17:26:55.076Z,7.40
2023-01-13T17:29:25.272Z,6.80
2023-01-13T17:32:00.688Z,7.40
2023-01-13T17:34:37.128Z,6.60
2023-01-13T17:37:06.118Z,6.40
2023-01-13T17:39:33.764Z,6.00
2023-01-13T17:42:01.590Z,6.30
2023-01-13T17:44:29.276Z,6.10
2023-01-13T17:47:01.146Z,6.60
2023-01-13T17:49:32.218Z,6.90
2023-01-13T17:52:02.311Z,7.20
2023-01-13T17:54:37.385Z,8.10
2023-01-13T17:57:07.061Z,6.40
2023-01-13T17:59:37.119Z,6.80
2023-01-13T18:02:11.010Z,6.30
2023-01-13T18:04:39.273Z,6.70
2023-01-13T18:07:06.932Z,6.90
2023-01-13T18:09:34.387Z,6.90
2023-01-13T18:12:02.034Z,5.50
2023-01-13T18:14:29.648Z,7.20
2023-01-13T18:16:57.368Z,5.40
2023-01-13T18:19:43.301Z,5.70
2023-01-13T18:22:32.387Z,5.30
2023-01-13T18:25:18.427Z,5.30
2023-01-13T18:27:46.055Z,4.80
2023-01-13T18:30:14.502Z,5.00
2023-01-13T18:32:42.201Z,5.30
2023-01-13T18:35:10.151Z,5.20
2023-01-13T18:37:41.467Z,4.90
2023-01-13T18:40:11.235Z,5.10
2023-01-13T18:42:51.073Z,4.90
2023-01-13T18:45:23.988Z,4.70
2023-01-13T18:47:54.131Z,4.20
2023-01-13T18:50:22.582Z,5.00
2023-01-13T18:52:50.665Z,5.40
2023-01-13T18:55:18.599Z,4.90
2023-01-13T18:57:46.578Z,4.80
2023-01-13T19:00:17.328Z,4.80
2023-01-13T19:02:46.774Z,5.00
2023-01-13T19:05:14.615Z,4.00
2023-01-13T19:07:49.641Z,4.60
2023-01-13T19:10:17.175Z,4.50
2023-01-13T19:12:44.145Z,4.50
2023-01-13T19:15:11.265Z,4.10
2023-01-13T19:17:38.409Z,4.10
2023-01-13T19:20:06.019Z,4.00
2023-01-13T19:22:34.907Z,3.70
2023-01-13T19:25:03.071Z,3.80
2023-01-13T19:27:30.194Z,3.70
2023-01-13T19:29:58.207Z,3.90
2023-01-13T19:32:26.186Z,4.00
2023-01-13T19:34:54.445Z,4.40
2023-01-13T19:37:21.615Z,4.70
2023-01-13T19:39:48.634Z,4.60
2023-01-13T19:42:34.563Z,5.10
2023-01-13T19:45:19.975Z,4.30
2023-01-13T19:47:47.052Z,3.60
2023-01-13T19:50:14.147Z,3.80
2023-01-13T19:52:42.484Z,3.60
2023-01-13T19:55:11.838Z,3.90
2023-01-13T19:57:40.318Z,3.60
2023-01-13T20:00:09.751Z,4.10
2023-01-13T20:02:47.057Z,4.00
2023-01-13T20:05:25.790Z,6.30
2023-01-13T20:07:53.345Z,4.00
2023-01-13T20:10:22.788Z,4.60
2023-01-13T20:12:50.495Z,4.90
2023-01-13T20:15:18.258Z,6.30
2023-01-13T20:17:48.515Z,4.50
2023-01-13T20:20:21.631Z,6.00
2023-01-13T20:22:49.303Z,6.40
2023-01-13T20:25:18.127Z,8.40
2023-01-13T20:27:48.775Z,8.10
2023-01-13T20:30:16.402Z,9.40
2023-01-13T20:32:44.489Z,9.30
2023-01-13T20:35:11.858Z,10.30
2023-01-13T20:37:40.537Z,11.30
2023-01-13T20:40:09.828Z,13.80
2023-01-13T20:42:44.177Z,9.70
2023-01-13T20:45:16.529Z,15.90
2023-01-13T20:47:44.609Z,15.50
2023-01-13T20:50:12.710Z,15.50
2023-01-13T20:52:39.728Z,12.90
2023-01-13T20:55:07.753Z,13.70
2023-01-13T20:57:35.189Z,14.90
2023-01-13T21:00:03.709Z,13.10
2023-01-13T21:02:30.875Z,13.00
2023-01-13T21:04:58.001Z,14.80
2023-01-13T21:07:25.078Z,17.80
2023-01-13T21:09:52.096Z,13.70
2023-01-13T21:12:37.532Z,12.90
2023-01-13T21:15:16.973Z,11.10
2023-01-13T21:18:03.502Z,10.90
2023-01-13T21:20:32.558Z,10.40
2023-01-13T21:23:00.974Z,11.10
2023-01-13T21:25:28.639Z,10.90
2023-01-13T21:28:06.731Z,8.90
2023-01-13T21:30:36.077Z,8.90
2023-01-13T21:33:05.556Z,12.00
2023-01-13T21:35:36.580Z,8.80
2023-01-13T21:38:04.221Z,10.70
2023-01-13T21:40:31.921Z,8.60
2023-01-13T21:43:18.012Z,7.90
2023-01-13T21:46:05.572Z,8.40
2023-01-13T21:48:33.023Z,13.20
2023-01-13T21:51:00.906Z,13.10
2023-01-13T21:53:27.968Z,10.00
2023-01-13T21:55:54.938Z,8.30
2023-01-13T21:58:21.922Z,16.90
2023-01-13T22:00:49.544Z,14.00
2023-01-13T22:03:18.098Z,13.00
2023-01-13T22:05:45.918Z,11.50
2023-01-13T22:08:13.213Z,10.90
2023-01-13T22:10:59.658Z,9.20
2023-01-13T22:13:47.527Z,9.30
2023-01-13T22:16:15.192Z,8.30
2023-01-13T22:18:42.643Z,8.40
2023-01-13T22:21:10.419Z,10.50
2023-01-13T22:23:37.394Z,10.00
2023-01-13T22:26:05.847Z,10.90
2023-01-13T22:28:46.056Z,11.50
2023-01-13T22:31:16.186Z,13.60
2023-01-13T22:33:46.572Z,12.90
2023-01-13T22:36:14.710Z,12.70
2023-01-13T22:38:41.634Z,10.20
2023-01-13T22:41:09.531Z,10.80
2023-01-13T22:43:37.468Z,11.70
2023-01-13T22:46:12.280Z,9.60
2023-01-13T22:48:40.604Z,10.10
2023-01-13T22:55:09.325Z,9.90
2023-01-13T22:57:46.970Z,10.10
2023-01-13T23:00:19.140Z,9.20
2023-01-13T23:02:49.169Z,9.60
2023-01-13T23:05:17.418Z,10.10
2023-01-13T23:07:44.854Z,11.40
2023-01-13T23:10:12.048Z,11.30
2023-01-13T23:12:39.102Z,10.50
2023-01-13T23:15:06.320Z,11.30
2023-01-13T23:17:33.254Z,10.90
2023-01-13T23:20:00.242Z,11.60
2023-01-13T23:22:27.238Z,11.00
2023-01-13T23:24:54.209Z,9.70
2023-01-13T23:27:21.179Z,10.50
2023-01-13T23:29:48.627Z,10.40
2023-01-13T23:32:15.731Z,10.00
2023-01-13T23:34:42.693Z,9.50
2023-01-13T23:37:09.626Z,8.90
2023-01-13T23:39:36.545Z,9.50
2023-01-13T23:42:03.556Z,10.10
2023-01-13T23:44:30.463Z,11.20
2023-01-13T23:46:57.840Z,10.30
2023-01-13T23:49:24.794Z,9.70
2023-01-13T23:51:52.637Z,10.60
2023-01-13T23:54:19.656Z,9.40
2023-01-13T23:56:49.615Z,9.60
2023-01-13T23:59:16.509Z,9.80
